Time;durP1;ratioP1;P1;durP2;ratioP2;P2;SDS_P1;SDS_P2;PMS_P1;PMS_P2;Temp;Humidity;BMP_temperature;BMP_pressure;BME280_temperature;BME280_humidity;BME280_pressure;Samples;Min_cycle;Max_cycle;Signal;HPM_P1;HPM_P2
2023/02/07 00:01:21;;;;;;;15.47;9.20;;;1.90;53.30;;;;;;5053430;28;20037;-72
2023/02/07 00:03:48;;;;;;;15.20;10.00;;;1.90;53.20;;;;;;5054141;28;20059;-72
2023/02/07 00:06:17;;;;;;;17.17;9.60;;;1.90;53.20;;;;;;5053951;28;20044;-72
2023/02/07 00:08:43;;;;;;;17.90;9.83;;;1.90;53.10;;;;;;5053689;28;20108;-72
2023/02/07 00:11:15;;;;;;;16.00;9.73;;;1.80;53.00;;;;;;5053697;28;20087;-72
2023/02/07 00:13:42;;;;;;;16.07;9.60;;;1.90;52.90;;;;;;5053868;28;20124;-72
2023/02/07 00:16:08;;;;;;;14.57;9.43;;;1.90;52.80;;;;;;5053550;28;20044;-72
2023/02/07 00:18:34;;;;;;;17.00;10.27;;;2.00;51.80;;;;;;5035619;28;20098;-72
2023/02/07 00:21:06;;;;;;;19.80;10.23;;;2.00;52.30;;;;;;5053815;28;20438;-72
2023/02/07 00:23:33;;;;;;;18.40;10.37;;;1.90;52.70;;;;;;5053517;28;20029;-72
2023/02/07 00:25:58;;;;;;;14.93;9.50;;;1.80;52.90;;;;;;5053480;28;20036;-72
2023/02/07 00:28:25;;;;;;;14.93;9.53;;;1.80;53.10;;;;;;5053566;28;20048;-72
2023/02/07 00:31:00;;;;;;;18.07;9.57;;;1.80;53.10;;;;;;5053216;28;20491;-70
2023/02/07 00:33:26;;;;;;;17.53;9.93;;;1.80;52.80;;;;;;5053719;28;20479;-72
2023/02/07 00:36:00;;;;;;;16.50;9.67;;;1.80;52.40;;;;;;5053448;28;20090;-72
2023/02/07 00:38:26;;;;;;;18.27;9.93;;;1.80;52.60;;;;;;5053796;28;20037;-71
2023/02/07 00:40:52;;;;;;;17.07;9.00;;;1.80;53.00;;;;;;5053341;28;20163;-72
2023/02/07 00:43:17;;;;;;;18.10;10.43;;;1.70;53.40;;;;;;5051624;28;20116;-72
2023/02/07 00:45:43;;;;;;;18.67;9.63;;;1.60;53.90;;;;;;5050154;28;20478;-72
2023/02/07 00:48:09;;;;;;;16.83;10.43;;;1.60;53.90;;;;;;5051099;28;20032;-72
2023/02/07 00:50:35;;;;;;;18.50;9.70;;;1.60;54.10;;;;;;5053078;28;20029;-72
2023/02/07 00:53:00;;;;;;;17.90;10.73;;;1.60;54.40;;;;;;5052952;28;20041;-71
2023/02/07 00:55:26;;;;;;;24.50;11.07;;;1.60;54.30;;;;;;5053305;28;20120;-72
2023/02/07 00:57:52;;;;;;;20.37;9.80;;;1.50;54.30;;;;;;5052842;28;20040;-71
2023/02/07 01:00:18;;;;;;;17.03;9.73;;;1.50;54.00;;;;;;5052862;28;20048;-71
2023/02/07 01:02:43;;;;;;;16.87;10.47;;;1.50;53.90;;;;;;5052640;28;20029;-72
2023/02/07 01:05:09;;;;;;;15.97;9.93;;;1.60;54.10;;;;;;5052892;28;20059;-72
2023/02/07 01:07:35;;;;;;;16.90;9.70;;;1.60;53.70;;;;;;5051579;28;20056;-71
2023/02/07 01:10:01;;;;;;;16.53;10.07;;;1.60;53.30;;;;;;5050124;28;20040;-69
2023/02/07 01:12:27;;;;;;;16.87;10.30;;;1.70;53.20;;;;;;5049360;28;20047;-71
2023/02/07 01:14:52;;;;;;;17.53;10.33;;;1.70;53.40;;;;;;5051088;28;20045;-72
2023/02/07 01:17:18;;;;;;;16.43;9.90;;;1.70;53.20;;;;;;5052127;28;20044;-71
2023/02/07 01:19:44;;;;;;;20.40;10.27;;;1.70;53.30;;;;;;5052697;28;20032;-71
2023/02/07 01:22:09;;;;;;;17.33;9.93;;;1.60;53.70;;;;;;5052692;28;20067;-72
2023/02/07 01:24:35;;;;;;;20.43;10.40;;;1.50;54.10;;;;;;5034569;28;20052;-72
2023/02/07 01:27:01;;;;;;;18.37;10.97;;;1.50;54.50;;;;;;5052441;28;20060;-71
2023/02/07 01:29:27;;;;;;;19.10;9.50;;;1.40;54.40;;;;;;5051948;28;20498;-71
2023/02/07 01:31:53;;;;;;;18.10;10.50;;;1.50;53.90;;;;;;5051685;28;20071;-72
2023/02/07 01:34:19;;;;;;;17.33;10.47;;;1.50;54.00;;;;;;5034493;28;20053;-72
2023/02/07 01:36:45;;;;;;;17.10;10.33;;;1.50;53.90;;;;;;5052255;28;20088;-72
2023/02/07 01:39:11;;;;;;;17.80;10.10;;;1.40;53.90;;;;;;5051877;28;20026;-71
2023/02/07 01:41:36;;;;;;;20.47;10.50;;;1.40;54.30;;;;;;5051990;28;20114;-72
2023/02/07 01:44:25;;;;;;;18.20;10.50;;;1.30;54.30;;;;;;5051942;28;20029;-72
2023/02/07 01:46:53;;;;;;;18.93;10.13;;;1.30;54.90;;;;;;5051390;28;20033;-71
2023/02/07 01:49:31;;;;;;;17.40;10.53;;;1.30;55.20;;;;;;5052037;28;20040;-71
2023/02/07 01:52:09;;;;;;;21.17;10.20;;;1.20;55.30;;;;;;5052290;28;20033;-72
2023/02/07 01:54:36;;;;;;;16.70;9.67;;;1.30;55.30;;;;;;5051933;28;20111;-71
2023/02/07 01:57:06;;;;;;;16.80;9.83;;;1.20;55.20;;;;;;5051965;28;20499;-72
2023/02/07 01:59:34;;;;;;;18.00;10.83;;;1.20;55.40;;;;;;5051789;28;20033;-71
2023/02/07 02:02:02;;;;;;;17.57;10.57;;;1.10;55.50;;;;;;5051834;28;20116;-72
2023/02/07 02:04:29;;;;;;;16.47;9.93;;;1.10;55.30;;;;;;5052077;28;20033;-71
2023/02/07 02:06:55;;;;;;;16.90;10.93;;;1.10;55.70;;;;;;5051789;28;20120;-71
2023/02/07 02:09:22;;;;;;;18.30;10.20;;;1.10;56.00;;;;;;5051695;28;20056;-72
2023/02/07 02:12:11;;;;;;;17.67;9.83;;;1.10;56.20;;;;;;5052042;28;20104;-71
2023/02/07 02:14:40;;;;;;;20.33;10.20;;;1.00;56.50;;;;;;5052085;28;20060;-71
2023/02/07 02:17:14;;;;;;;20.30;10.20;;;1.00;56.60;;;;;;5051464;28;20576;-71
2023/02/07 02:20:15;;;;;;;19.10;10.53;;;1.00;56.60;;;;;;5051846;28;20377;-71
2023/02/07 02:23:14;;;;;;;15.73;10.37;;;1.00;56.50;;;;;;5019501;28;20045;-71
2023/02/07 02:25:51;;;;;;;19.07;10.27;;;1.10;56.30;;;;;;5022779;28;20041;-71
2023/02/07 02:28:35;;;;;;;17.47;9.83;;;1.00;56.40;;;;;;5037620;28;20068;-71
2023/02/07 02:31:10;;;;;;;17.30;9.73;;;1.00;56.60;;;;;;5055642;28;20399;-72
2023/02/07 02:33:41;;;;;;;18.27;11.07;;;1.00;57.00;;;;;;5037667;28;20060;-71
2023/02/07 02:36:30;;;;;;;18.23;10.80;;;0.90;57.00;;;;;;5055587;28;20136;-71
2023/02/07 02:39:01;;;;;;;17.67;10.37;;;0.90;57.00;;;;;;5055465;28;20029;-71
2023/02/07 02:41:41;;;;;;;20.93;11.13;;;0.90;57.10;;;;;;5055704;28;20044;-72
2023/02/07 02:44:14;;;;;;;18.60;10.67;;;0.90;57.20;;;;;;5055272;28;20029;-71
2023/02/07 02:46:41;;;;;;;19.00;10.80;;;0.90;57.40;;;;;;5054925;28;20033;-71
2023/02/07 02:49:10;;;;;;;15.60;10.17;;;0.80;57.60;;;;;;5055134;28;20033;-71
2023/02/07 02:51:36;;;;;;;16.40;9.77;;;0.80;57.50;;;;;;5055136;28;20033;-73
2023/02/07 02:54:02;;;;;;;16.13;9.40;;;0.90;57.60;;;;;;5054988;28;20029;-72
2023/02/07 02:56:46;;;;;;;18.07;10.53;;;0.80;57.60;;;;;;5055032;28;20037;-71
2023/02/07 02:59:27;;;;;;;16.17;10.50;;;0.80;57.40;;;;;;5055302;28;20087;-71
2023/02/07 03:02:21;;;;;;;16.33;9.90;;;0.80;57.50;;;;;;5054799;28;20112;-71
2023/02/07 03:05:05;;;;;;;16.30;9.73;;;0.70;57.70;;;;;;5055127;28;20044;-71
2023/02/07 03:07:48;;;;;;;18.37;10.50;;;0.70;57.60;;;;;;5037109;28;20132;-71
2023/02/07 03:10:27;;;;;;;19.30;10.00;;;0.70;57.80;;;;;;5054952;28;20098;-72
2023/02/07 03:13:22;;;;;;;17.80;10.10;;;0.70;57.90;;;;;;5034737;28;20432;-71
2023/02/07 03:16:23;;;;;;;17.27;10.40;;;0.70;57.70;;;;;;5031017;28;20506;-71
2023/02/07 03:19:08;;;;;;;16.97;10.00;;;0.60;57.80;;;;;;5017530;28;20591;-71
2023/02/07 03:21:53;;;;;;;16.27;9.87;;;0.60;58.00;;;;;;5033673;28;20542;-72
2023/02/07 03:24:33;;;;;;;16.07;9.53;;;0.60;58.10;;;;;;5035027;28;20040;-72
2023/02/07 03:27:04;;;;;;;17.37;9.43;;;0.50;58.20;;;;;;5035124;28;20072;-71
2023/02/07 03:29:33;;;;;;;15.60;9.77;;;0.60;58.20;;;;;;5035046;28;20075;-71
2023/02/07 03:32:02;;;;;;;18.80;10.17;;;0.50;58.10;;;;;;5034671;28;20037;-71
2023/02/07 03:34:50;;;;;;;16.20;9.77;;;0.50;58.10;;;;;;5033977;28;20038;-70
2023/02/07 03:37:20;;;;;;;15.90;10.27;;;0.50;58.50;;;;;;5034619;28;20042;-71
2023/02/07 03:39:46;;;;;;;17.13;10.07;;;0.50;58.60;;;;;;5034794;28;20100;-72
2023/02/07 03:42:23;;;;;;;16.10;10.37;;;0.50;58.80;;;;;;5034452;28;20551;-71
2023/02/07 03:44:53;;;;;;;16.47;10.00;;;0.50;58.90;;;;;;5034309;28;20041;-72
2023/02/07 03:47:19;;;;;;;16.27;10.40;;;0.50;59.00;;;;;;5034524;28;20044;-71
2023/02/07 03:49:45;;;;;;;17.83;10.70;;;0.50;58.90;;;;;;5033292;28;20112;-71
2023/02/07 03:52:10;;;;;;;19.97;10.10;;;0.50;59.10;;;;;;5034343;28;20041;-71
2023/02/07 03:54:36;;;;;;;27.00;11.20;;;0.40;59.00;;;;;;5034524;28;20101;-72
2023/02/07 03:57:02;;;;;;;25.03;10.40;;;0.50;59.30;;;;;;5034270;28;20099;-71
2023/02/07 03:59:28;;;;;;;23.43;10.97;;;0.40;59.10;;;;;;5033935;28;20041;-71
2023/02/07 04:01:53;;;;;;;22.90;10.57;;;0.40;59.20;;;;;;5033639;28;20037;-72
2023/02/07 04:04:19;;;;;;;20.70;10.23;;;0.40;59.30;;;;;;5034125;28;20041;-72
2023/02/07 04:06:45;;;;;;;30.47;11.60;;;0.40;59.50;;;;;;5033939;28;20057;-71
2023/02/07 04:09:11;;;;;;;22.73;11.37;;;0.40;59.20;;;;;;5033916;28;20037;-71
2023/02/07 04:11:37;;;;;;;28.30;10.67;;;0.40;59.30;;;;;;5033821;28;20026;-71
2023/02/07 04:14:02;;;;;;;29.53;11.90;;;0.40;59.40;;;;;;5033844;28;20392;-71
2023/02/07 04:16:28;;;;;;;26.47;11.83;;;0.40;59.70;;;;;;5033647;28;20045;-72
2023/02/07 04:18:54;;;;;;;22.77;11.03;;;0.30;59.80;;;;;;5033946;28;20026;-72
2023/02/07 04:21:20;;;;;;;21.93;10.40;;;0.30;60.20;;;;;;5033854;28;20037;-72
2023/02/07 04:23:46;;;;;;;15.20;9.37;;;0.30;60.30;;;;;;5034089;28;20104;-72
2023/02/07 04:26:11;;;;;;;20.43;10.27;;;0.30;60.20;;;;;;5033871;28;20033;-72
2023/02/07 04:28:37;;;;;;;19.27;10.67;;;0.30;60.10;;;;;;5033662;28;20112;-72
2023/02/07 04:31:03;;;;;;;18.13;10.70;;;0.20;59.60;;;;;;5033605;28;20065;-71
2023/02/07 04:33:29;;;;;;;24.83;10.73;;;0.20;59.90;;;;;;5033580;28;20033;-72
2023/02/07 04:36:00;;;;;;;22.60;10.23;;;0.20;59.90;;;;;;5033804;28;20077;-71
2023/02/07 04:38:26;;;;;;;16.93;9.47;;;0.20;60.00;;;;;;5033558;28;20038;-71
2023/02/07 04:40:58;;;;;;;15.27;9.40;;;0.20;59.90;;;;;;5033334;28;20088;-71
2023/02/07 04:43:24;;;;;;;15.33;9.27;;;0.20;59.70;;;;;;5033418;28;20399;-70
2023/02/07 04:45:49;;;;;;;17.97;10.00;;;0.20;59.80;;;;;;5032991;28;20038;-70
2023/02/07 04:48:15;;;;;;;16.53;9.47;;;0.20;59.80;;;;;;5033456;28;20108;-71
2023/02/07 04:50:41;;;;;;;17.73;9.57;;;0.20;59.80;;;;;;5033355;28;20037;-72
2023/02/07 04:53:07;;;;;;;17.93;9.30;;;0.10;59.60;;;;;;5033273;28;20108;-71
2023/02/07 04:55:34;;;;;;;20.10;10.10;;;0.10;59.90;;;;;;5032867;28;20065;-71
2023/02/07 04:58:00;;;;;;;23.57;9.77;;;0.10;59.30;;;;;;5033203;28;20029;-72
2023/02/07 05:00:26;;;;;;;15.93;8.33;;;0.20;59.30;;;;;;5031643;28;20036;-72
2023/02/07 05:02:51;;;;;;;24.37;10.23;;;0.20;59.00;;;;;;5033247;28;20041;-72
2023/02/07 05:05:17;;;;;;;23.57;14.77;;;0.10;58.70;;;;;;5032876;28;20100;-72
2023/02/07 05:07:43;;;;;;;22.20;11.63;;;0.10;58.70;;;;;;5032884;28;20042;-71
2023/02/07 05:10:09;;;;;;;21.27;10.77;;;0.10;58.60;;;;;;5033019;28;20025;-71
2023/02/07 05:12:34;;;;;;;15.93;10.37;;;0.10;58.60;;;;;;5033226;28;20388;-72
2023/02/07 05:15:00;;;;;;;22.77;10.63;;;0.10;59.00;;;;;;5032836;28;20403;-71
2023/02/07 05:17:26;;;;;;;27.73;9.47;;;0.10;58.90;;;;;;5032555;28;20045;-71
2023/02/07 05:19:51;;;;;;;21.40;8.63;;;0.10;58.50;;;;;;5032687;28;20044;-72
2023/02/07 05:22:17;;;;;;;18.43;10.07;;;0.10;58.60;;;;;;5032711;28;20115;-71
2023/02/07 05:24:43;;;;;;;20.50;9.00;;;0.10;58.40;;;;;;5032574;28;20114;-70
2023/02/07 05:27:09;;;;;;;22.90;10.00;;;0.10;58.50;;;;;;5032730;28;20042;-71
2023/02/07 05:29:34;;;;;;;20.50;9.43;;;0.10;58.40;;;;;;5032429;28;20037;-71
2023/02/07 05:34:44;;;;;;;18.60;8.57;;;0.20;58.60;;;;;;5032328;28;20103;-71
2023/02/07 05:37:10;;;;;;;18.83;9.20;;;0.10;57.60;;;;;;5032109;28;20045;-69
2023/02/07 05:39:36;;;;;;;22.83;8.40;;;0.10;57.70;;;;;;5032105;28;20037;-69
2023/02/07 05:42:02;;;;;;;19.07;9.10;;;0.20;57.70;;;;;;5032430;28;20037;-72
2023/02/07 05:44:27;;;;;;;12.07;8.03;;;0.20;57.20;;;;;;5032409;28;20476;-71
2023/02/07 05:46:53;;;;;;;16.47;8.33;;;0.20;57.30;;;;;;5032430;28;20087;-71
2023/02/07 05:49:19;;;;;;;18.73;8.47;;;0.10;57.40;;;;;;5032143;28;20030;-70
2023/02/07 05:51:44;;;;;;;15.70;9.50;;;0.10;57.70;;;;;;5032256;28;20069;-70
2023/02/07 05:54:10;;;;;;;27.60;9.37;;;0.20;57.90;;;;;;5032411;28;20041;-70
2023/02/07 05:56:36;;;;;;;20.40;9.03;;;0.10;58.00;;;;;;5032231;28;20053;-70
2023/02/07 05:59:02;;;;;;;18.23;8.77;;;0.10;58.00;;;;;;5034283;28;20041;-71
2023/02/07 06:01:27;;;;;;;14.73;8.63;;;0.10;57.80;;;;;;5036554;28;20164;-70
2023/02/07 06:03:53;;;;;;;17.00;9.00;;;0.10;57.50;;;;;;5036325;28;20051;-70
2023/02/07 06:06:19;;;;;;;20.63;8.57;;;0.10;57.30;;;;;;5036047;28;20050;-70
2023/02/07 06:08:44;;;;;;;26.47;9.73;;;0.20;57.50;;;;;;5035965;28;20037;-70
2023/02/07 06:11:10;;;;;;;16.67;8.90;;;0.20;57.80;;;;;;5036318;28;20118;-70
2023/02/07 06:13:36;;;;;;;20.70;8.67;;;0.10;57.90;;;;;;5036149;28;20025;-70
2023/02/07 06:16:02;;;;;;;19.67;9.17;;;0.20;57.90;;;;;;5036235;28;20045;-71
2023/02/07 06:18:29;;;;;;;16.97;8.60;;;0.10;57.90;;;;;;5036108;28;20396;-71
2023/02/07 06:20:54;;;;;;;39.80;10.83;;;0.20;57.90;;;;;;5035754;28;20041;-70
2023/02/07 06:23:21;;;;;;;22.63;9.23;;;0.10;57.80;;;;;;5036077;28;20033;-71
2023/02/07 06:25:47;;;;;;;15.57;9.13;;;0.10;58.20;;;;;;5036018;28;20479;-70
2023/02/07 06:28:13;;;;;;;22.63;9.47;;;0.10;58.20;;;;;;5035995;28;20030;-70
2023/02/07 06:30:39;;;;;;;16.67;8.73;;;0.10;58.00;;;;;;5035659;28;20065;-70
2023/02/07 06:33:05;;;;;;;25.07;9.13;;;0.10;58.20;;;;;;5035605;28;20037;-70
2023/02/07 06:35:30;;;;;;;19.83;9.37;;;0.00;58.20;;;;;;5035618;28;20054;-70
2023/02/07 06:37:56;;;;;;;19.47;10.13;;;0.00;58.50;;;;;;5035458;28;20060;-70
2023/02/07 06:40:22;;;;;;;18.73;8.93;;;0.00;58.70;;;;;;5035296;28;20040;-71
2023/02/07 06:42:47;;;;;;;16.97;9.20;;;0.10;58.60;;;;;;5035527;28;20048;-70
2023/02/07 06:45:13;;;;;;;19.47;9.37;;;0.00;58.40;;;;;;5035714;28;20373;-70
2023/02/07 06:47:39;;;;;;;19.43;9.60;;;0.10;58.40;;;;;;5035747;28;20403;-71
2023/02/07 06:50:05;;;;;;;18.57;9.23;;;0.00;58.20;;;;;;5034022;28;20045;-70
2023/02/07 06:52:31;;;;;;;22.10;10.97;;;0.10;58.30;;;;;;5035221;28;20033;-71
2023/02/07 06:54:57;;;;;;;22.60;12.50;;;0.10;58.20;;;;;;5035676;28;20120;-71
2023/02/07 06:57:22;;;;;;;29.97;10.80;;;0.10;58.10;;;;;;5035543;28;20484;-70
2023/02/07 06:59:48;;;;;;;19.77;10.43;;;0.10;58.00;;;;;;5035139;28;20444;-71
2023/02/07 07:02:14;;;;;;;16.13;9.83;;;0.10;58.10;;;;;;5035306;28;20037;-71
2023/02/07 07:04:39;;;;;;;22.77;10.90;;;0.10;58.30;;;;;;5035339;28;20395;-71
2023/02/07 07:07:05;;;;;;;37.43;10.30;;;0.10;58.30;;;;;;5034965;28;20085;-71
2023/02/07 07:09:31;;;;;;;21.50;10.07;;;0.20;58.50;;;;;;5033772;28;20038;-71
2023/02/07 07:11:57;;;;;;;17.23;10.10;;;0.20;58.50;;;;;;5034538;28;20052;-70
2023/02/07 07:14:23;;;;;;;20.23;11.33;;;0.20;58.80;;;;;;5034789;28;20033;-71
2023/02/07 07:16:48;;;;;;;19.03;10.07;;;0.20;58.80;;;;;;5034548;28;20045;-70
2023/02/07 07:19:14;;;;;;;24.60;11.37;;;0.30;58.60;;;;;;5034842;28;20037;-70
2023/02/07 07:21:40;;;;;;;35.17;12.13;;;0.30;58.40;;;;;;5034828;28;20041;-70
2023/02/07 07:24:06;;;;;;;24.97;11.10;;;0.30;58.30;;;;;;5033151;28;20030;-70
2023/02/07 07:26:32;;;;;;;27.67;11.80;;;0.30;58.60;;;;;;5034078;28;20041;-70
2023/02/07 07:28:59;;;;;;;29.23;11.90;;;0.30;58.60;;;;;;5033963;28;20440;-69
2023/02/07 07:31:26;;;;;;;23.53;9.97;;;0.40;58.60;;;;;;5034605;28;20064;-70
2023/02/07 07:33:53;;;;;;;17.20;10.03;;;0.40;58.50;;;;;;5034351;28;20399;-70
2023/02/07 07:36:19;;;;;;;20.13;10.33;;;0.40;58.30;;;;;;5032881;28;20088;-69
2023/02/07 07:38:45;;;;;;;24.37;10.67;;;0.50;58.20;;;;;;5034159;28;20088;-70
2023/02/07 07:41:12;;;;;;;19.00;10.83;;;0.50;58.10;;;;;;5033866;28;20041;-70
2023/02/07 07:43:38;;;;;;;22.03;10.53;;;0.60;58.20;;;;;;5034202;28;20037;-70
2023/02/07 07:46:07;;;;;;;22.37;10.33;;;0.60;58.10;;;;;;5034296;28;20099;-69
2023/02/07 07:48:33;;;;;;;18.53;10.23;;;0.70;58.10;;;;;;5034339;28;20060;-69
2023/02/07 07:50:59;;;;;;;17.53;9.90;;;0.80;57.90;;;;;;5032559;28;20460;-70
2023/02/07 07:53:25;;;;;;;18.90;10.47;;;0.80;57.70;;;;;;5033674;28;20040;-70
2023/02/07 07:55:52;;;;;;;17.70;10.27;;;0.90;57.60;;;;;;5034023;28;20037;-69
2023/02/07 07:58:19;;;;;;;19.40;8.93;;;0.90;57.40;;;;;;5033764;28;20153;-70
2023/02/07 08:00:46;;;;;;;20.20;9.63;;;0.90;57.40;;;;;;5033615;28;20033;-70
2023/02/07 08:03:12;;;;;;;19.83;10.17;;;1.00;57.30;;;;;;5033120;28;20037;-70
2023/02/07 08:05:38;;;;;;;17.80;10.20;;;1.00;57.00;;;;;;5030775;28;21251;-70
2023/02/07 08:08:05;;;;;;;17.33;9.33;;;1.00;56.80;;;;;;5033780;28;20044;-70
2023/02/07 08:10:31;;;;;;;15.07;9.03;;;1.10;56.60;;;;;;5033666;28;20503;-70
2023/02/07 08:12:57;;;;;;;17.83;9.83;;;1.10;56.30;;;;;;5033673;28;20071;-70
2023/02/07 08:15:24;;;;;;;17.87;10.70;;;1.20;56.50;;;;;;5033239;28;20076;-71
2023/02/07 08:17:50;;;;;;;20.23;10.10;;;1.20;56.40;;;;;;5033388;28;20044;-70
2023/02/07 08:20:17;;;;;;;20.73;10.23;;;1.30;56.40;;;;;;5033198;28;20099;-70
2023/02/07 08:22:43;;;;;;;23.57;8.97;;;1.30;56.90;;;;;;5031638;28;20029;-70
2023/02/07 08:25:09;;;;;;;16.73;9.70;;;1.40;56.10;;;;;;5031510;28;20025;-70
2023/02/07 08:27:35;;;;;;;21.00;10.07;;;1.50;55.70;;;;;;5031824;28;20033;-70
2023/02/07 08:30:00;;;;;;;20.90;9.67;;;1.50;55.60;;;;;;5032931;28;20037;-70
2023/02/07 08:32:28;;;;;;;15.07;9.53;;;1.60;55.60;;;;;;5033073;28;20111;-70
2023/02/07 08:34:54;;;;;;;15.40;9.57;;;1.60;55.50;;;;;;5033187;28;20484;-71
2023/02/07 08:37:20;;;;;;;19.57;9.10;;;1.60;55.40;;;;;;5032819;28;20047;-71
2023/02/07 08:39:46;;;;;;;17.70;9.87;;;1.60;55.30;;;;;;5033112;28;20099;-70
2023/02/07 08:42:12;;;;;;;16.07;9.23;;;1.70;55.20;;;;;;5033066;28;20036;-70
2023/02/07 08:44:38;;;;;;;22.47;9.50;;;1.80;55.00;;;;;;5032935;28;20029;-69
2023/02/07 08:47:04;;;;;;;15.93;9.30;;;1.80;54.90;;;;;;5032889;28;20039;-70
2023/02/07 08:49:30;;;;;;;17.70;8.93;;;1.90;54.80;;;;;;5033372;28;20113;-70
2023/02/07 08:51:55;;;;;;;18.77;9.53;;;1.90;54.50;;;;;;5033138;28;20041;-70
2023/02/07 08:54:21;;;;;;;16.47;9.20;;;2.00;54.30;;;;;;5033198;28;20099;-69
2023/02/07 08:56:47;;;;;;;11.83;7.07;;;2.10;54.10;;;;;;5032974;28;20069;-70
2023/02/07 08:59:13;;;;;;;15.10;7.57;;;2.10;53.80;;;;;;5032665;28;20034;-69
2023/02/07 09:01:39;;;;;;;16.80;8.30;;;2.20;53.70;;;;;;5032750;28;20033;-70
2023/02/07 09:04:04;;;;;;;27.50;8.87;;;2.20;53.20;;;;;;5032982;28;20033;-70
2023/02/07 09:06:30;;;;;;;21.67;7.30;;;2.30;53.10;;;;;;5033390;28;20046;-71
2023/02/07 09:08:56;;;;;;;20.47;7.80;;;2.30;52.90;;;;;;5032828;28;20038;-71
2023/02/07 09:11:24;;;;;;;21.13;8.17;;;2.40;52.40;;;;;;5032720;28;20072;-72
2023/02/07 09:13:49;;;;;;;13.63;7.97;;;2.40;52.30;;;;;;5032730;28;20044;-72
2023/02/07 09:16:15;;;;;;;16.97;8.43;;;2.50;52.60;;;;;;5032428;28;20045;-72
2023/02/07 09:18:41;;;;;;;13.23;7.60;;;2.50;52.60;;;;;;5032860;28;20057;-71
2023/02/07 09:21:07;;;;;;;13.53;7.70;;;2.60;52.10;;;;;;5033217;28;20400;-72
2023/02/07 09:23:34;;;;;;;12.50;8.07;;;2.60;51.80;;;;;;5032891;28;20049;-71
2023/02/07 09:26:04;;;;;;;14.53;7.73;;;2.70;52.00;;;;;;5032573;28;20520;-72
2023/02/07 09:28:30;;;;;;;13.20;7.77;;;2.70;52.00;;;;;;5032449;28;20029;-72
2023/02/07 09:30:56;;;;;;;14.23;7.03;;;2.80;52.10;;;;;;5032712;28;20036;-71
2023/02/07 09:33:22;;;;;;;13.20;8.00;;;2.90;51.80;;;;;;5031868;28;20408;-72
2023/02/07 09:35:49;;;;;;;10.80;6.77;;;2.90;51.30;;;;;;5032405;28;20041;-72
2023/02/07 09:38:18;;;;;;;12.63;7.20;;;3.00;50.50;;;;;;5032146;28;20432;-72
2023/02/07 09:40:44;;;;;;;13.27;6.60;;;3.10;50.50;;;;;;5032408;28;20472;-72
2023/02/07 09:43:33;;;;;;;11.53;6.67;;;3.10;50.30;;;;;;5032193;28;20040;-72
2023/02/07 09:46:09;;;;;;;11.03;6.13;;;3.20;50.30;;;;;;5032710;28;20033;-72
2023/02/07 09:49:05;;;;;;;10.57;6.17;;;3.30;50.30;;;;;;5032484;28;20228;-72
2023/02/07 09:51:33;;;;;;;12.40;7.17;;;3.40;49.60;;;;;;5032383;28;20030;-72
2023/02/07 09:54:06;;;;;;;11.23;6.47;;;3.40;49.30;;;;;;5032420;28;20038;-72
2023/02/07 09:56:34;;;;;;;12.83;6.20;;;3.50;49.20;;;;;;5030838;28;20167;-72
2023/02/07 09:59:08;;;;;;;18.17;8.77;;;3.60;49.10;;;;;;5032412;28;20487;-72
2023/02/07 10:01:48;;;;;;;14.20;6.60;;;3.70;48.90;;;;;;5032358;28;20083;-72
2023/02/07 10:04:23;;;;;;;10.77;6.23;;;3.70;48.40;;;;;;5032138;28;20036;-72
2023/02/07 10:06:52;;;;;;;12.00;7.13;;;3.80;48.10;;;;;;5032006;28;20175;-72
2023/02/07 10:09:22;;;;;;;12.00;6.80;;;3.80;47.70;;;;;;5031734;28;20120;-70
2023/02/07 10:12:02;;;;;;;14.47;7.03;;;3.90;46.70;;;;;;5031989;28;20034;-70
2023/02/07 10:14:52;;;;;;;12.27;6.77;;;3.90;47.10;;;;;;5031933;28;20432;-70
2023/02/07 10:17:43;;;;;;;12.40;6.70;;;4.10;47.60;;;;;;5032164;28;20049;-70
2023/02/07 10:20:14;;;;;;;11.30;6.43;;;4.20;48.00;;;;;;5031862;28;20480;-70
2023/02/07 10:22:55;;;;;;;10.43;6.07;;;4.30;48.20;;;;;;5032107;28;20068;-70
2023/02/07 10:25:47;;;;;;;10.03;5.57;;;4.30;47.90;;;;;;5031819;28;20569;-70
2023/02/07 10:28:13;;;;;;;9.73;5.87;;;4.40;47.40;;;;;;5031736;28;20034;-70
2023/02/07 10:30:48;;;;;;;10.17;6.97;;;4.50;47.20;;;;;;5031941;28;20036;-70
2023/02/07 10:33:20;;;;;;;11.30;6.43;;;4.60;47.70;;;;;;5030224;28;20033;-70
2023/02/07 10:35:47;;;;;;;16.15;6.55;;;4.60;48.40;;;;;;5031535;28;20048;-70
2023/02/07 10:38:29;;;;;;;12.60;6.63;;;4.80;47.20;;;;;;5031720;28;20091;-70
2023/02/07 10:41:16;;;;;;;11.25;6.50;;;4.80;46.70;;;;;;5031829;28;20033;-70
2023/02/07 10:43:45;;;;;;;12.67;7.00;;;4.90;46.60;;;;;;5031711;28;20512;-70
2023/02/07 10:46:14;;;;;;;11.27;6.10;;;5.00;46.50;;;;;;5033516;28;20462;-70
2023/02/07 10:48:40;;;;;;;10.73;6.50;;;5.10;47.30;;;;;;5035237;28;20030;-71
2023/02/07 10:51:30;;;;;;;12.60;6.60;;;5.10;46.60;;;;;;5035349;28;20038;-70
2023/02/07 10:54:15;;;;;;;10.50;6.00;;;5.20;46.50;;;;;;5035977;28;20026;-70
2023/02/07 10:56:43;;;;;;;11.50;6.10;;;5.30;45.60;;;;;;5035371;28;20060;-70
2023/02/07 10:59:34;;;;;;;14.30;6.30;;;5.30;45.30;;;;;;5035651;28;20392;-70
2023/02/07 11:02:00;;;;;;;12.67;6.17;;;5.40;45.00;;;;;;5034141;28;20395;-70
2023/02/07 11:04:37;;;;;;;11.67;5.90;;;5.50;44.80;;;;;;5035170;28;20061;-70
2023/02/07 11:07:06;;;;;;;10.87;5.90;;;5.60;45.40;;;;;;5035293;28;20147;-70
2023/02/07 11:09:36;;;;;;;9.20;5.60;;;5.60;44.00;;;;;;5035156;28;20133;-70
2023/02/07 11:12:18;;;;;;;8.57;5.17;;;5.70;43.60;;;;;;5035022;28;20472;-70
2023/02/07 11:15:06;;;;;;;10.50;5.77;;;5.80;43.60;;;;;;5035052;28;20044;-69
2023/02/07 11:17:33;;;;;;;9.03;5.73;;;5.90;43.50;;;;;;5035017;28;20046;-70
2023/02/07 11:20:06;;;;;;;11.33;5.97;;;6.00;43.40;;;;;;5034688;28;20037;-70
2023/02/07 11:22:32;;;;;;;;;;;6.00;42.50;;;;;;5034626;28;20096;-70
2023/02/07 11:25:08;;;;;;;10.90;4.87;;;6.10;42.40;;;;;;5034911;28;20371;-72
2023/02/07 11:27:39;;;;;;;9.93;5.80;;;6.20;42.30;;;;;;5034837;28;20527;-71
2023/02/07 11:30:15;;;;;;;13.80;6.03;;;6.20;42.30;;;;;;5034886;28;20349;-70
2023/02/07 11:32:42;;;;;;;13.30;6.30;;;6.30;42.40;;;;;;5034842;28;20033;-70
2023/02/07 11:35:17;;;;;;;10.93;6.37;;;6.40;42.60;;;;;;5034477;28;20048;-70
2023/02/07 11:37:57;;;;;;;10.47;6.00;;;6.40;42.20;;;;;;5034210;28;20041;-70
2023/02/07 11:40:40;;;;;;;9.73;6.43;;;6.50;42.20;;;;;;5034210;28;20036;-70
2023/02/07 11:43:09;;;;;;;19.20;11.43;;;6.60;42.10;;;;;;5034522;28;20041;-70
2023/02/07 11:45:37;;;;;;;15.00;6.67;;;6.70;41.80;;;;;;5034623;28;20037;-70
2023/02/07 11:48:03;;;;;;;9.23;5.20;;;6.70;41.50;;;;;;5032986;28;20499;-70
2023/02/07 11:50:30;;;;;;;13.20;6.17;;;6.80;41.60;;;;;;5034286;28;20495;-70
2023/02/07 11:52:58;;;;;;;7.87;4.47;;;6.90;41.30;;;;;;5034373;28;20094;-70
2023/02/07 11:55:32;;;;;;;13.60;4.50;;;6.90;39.60;;;;;;5031437;28;20125;-70
2023/02/07 11:58:00;;;;;;;6.17;3.77;;;7.00;39.50;;;;;;5032261;28;20530;-69
2023/02/07 12:00:29;;;;;;;6.80;3.90;;;7.00;39.90;;;;;;5033485;28;20030;-70
2023/02/07 12:03:08;;;;;;;6.50;3.57;;;7.10;39.80;;;;;;5034364;28;20033;-70
2023/02/07 12:05:45;;;;;;;7.37;3.50;;;7.20;38.10;;;;;;5032335;28;20478;-70
2023/02/07 12:08:16;;;;;;;7.50;3.80;;;7.20;38.10;;;;;;5034484;28;20423;-70
2023/02/07 12:10:50;;;;;;;6.97;3.40;;;7.30;37.60;;;;;;5034230;28;20495;-70
2023/02/07 12:13:21;;;;;;;7.57;3.73;;;7.30;36.20;;;;;;5034271;28;20102;-70
2023/02/07 12:16:01;;;;;;;7.73;3.90;;;7.30;37.30;;;;;;5034189;28;20025;-70
2023/02/07 12:18:26;;;;;;;10.47;4.53;;;7.30;37.80;;;;;;5033649;28;20038;-70
2023/02/07 12:20:57;;;;;;;8.77;4.33;;;7.30;37.50;;;;;;5034104;28;20041;-70
2023/02/07 12:23:32;;;;;;;8.00;4.10;;;7.40;37.70;;;;;;5033944;28;20034;-70
2023/02/07 12:26:04;;;;;;;9.17;4.03;;;7.40;36.70;;;;;;5034057;28;20033;-70
2023/02/07 12:28:42;;;;;;;5.37;3.80;;;7.40;37.20;;;;;;5033824;28;20033;-70
2023/02/07 12:31:28;;;;;;;8.17;3.87;;;7.50;37.50;;;;;;5033615;28;20272;-70
2023/02/07 12:34:04;;;;;;;7.10;4.07;;;7.60;37.40;;;;;;5033530;28;20034;-71
2023/02/07 12:36:35;;;;;;;8.43;4.37;;;7.60;36.50;;;;;;5033357;28;20045;-70
2023/02/07 12:39:12;;;;;;;7.60;4.30;;;7.60;37.00;;;;;;5033323;28;20450;-69
2023/02/07 12:41:55;;;;;;;6.43;4.20;;;7.60;36.90;;;;;;5033305;28;20029;-70
2023/02/07 12:44:27;;;;;;;8.82;5.10;;;7.70;37.50;;;;;;5033154;28;20061;-70
2023/02/07 12:46:59;;;;;;;11.82;4.80;;;7.80;37.80;;;;;;5033556;28;20030;-70
2023/02/07 12:49:44;;;;;;;7.15;4.43;;;7.80;36.50;;;;;;5033767;28;20107;-69
2023/02/07 12:52:22;;;;;;;7.53;4.00;;;7.80;35.70;;;;;;5033285;28;20049;-70
2023/02/07 12:55:24;;;;;;;7.03;4.10;;;7.80;36.20;;;;;;5033204;28;20123;-70
2023/02/07 12:57:50;;;;;;;7.20;3.77;;;7.80;35.80;;;;;;5033113;28;20046;-69
2023/02/07 13:00:19;;;;;;;9.30;4.07;;;7.80;35.60;;;;;;5030162;28;20401;-72
2023/02/07 13:03:00;;;;;;;6.87;3.67;;;7.70;34.30;;;;;;5029867;28;20040;-70